sensor_id;sensor_type;location;lat;lon;timestamp;P1;durP1;ratioP1;P2;durP2;ratioP2
12332;SDS011;6232;48.094;11.288;2022-08-19T00:02:30;20.13;;;13.30;;
12332;SDS011;6232;48.094;11.288;2022-08-19T00:05:16;14.37;;;12.00;;
12332;SDS011;6232;48.094;11.288;2022-08-19T00:08:02;18.57;;;13.27;;
12332;SDS011;6232;48.094;11.288;2022-08-19T00:10:48;17.60;;;12.83;;
12332;SDS011;6232;48.094;11.288;2022-08-19T00:13:33;14.57;;;11.90;;
12332;SDS011;6232;48.094;11.288;2022-08-19T00:16:19;18.13;;;14.00;;
12332;SDS011;6232;48.094;11.288;2022-08-19T00:19:05;16.80;;;11.80;;
12332;SDS011;6232;48.094;11.288;2022-08-19T00:21:51;15.50;;;12.00;;
12332;SDS011;6232;48.094;11.288;2022-08-19T00:24:37;22.20;;;13.27;;
12332;SDS011;6232;48.094;11.288;2022-08-19T00:27:23;16.37;;;13.27;;
12332;SDS011;6232;48.094;11.288;2022-08-19T00:30:09;15.33;;;12.50;;
12332;SDS011;6232;48.094;11.288;2022-08-19T00:32:56;16.77;;;12.10;;
12332;SDS011;6232;48.094;11.288;2022-08-19T00:35:41;14.77;;;12.20;;
12332;SDS011;6232;48.094;11.288;2022-08-19T00:38:27;17.97;;;12.87;;
12332;SDS011;6232;48.094;11.288;2022-08-19T00:41:14;16.70;;;12.10;;
12332;SDS011;6232;48.094;11.288;2022-08-19T00:44:04;14.80;;;12.50;;
12332;SDS011;6232;48.094;11.288;2022-08-19T00:46:50;16.73;;;13.20;;
12332;SDS011;6232;48.094;11.288;2022-08-19T00:49:38;15.63;;;11.80;;
12332;SDS011;6232;48.094;11.288;2022-08-19T00:52:27;16.03;;;12.10;;
12332;SDS011;6232;48.094;11.288;2022-08-19T00:55:20;13.83;;;11.33;;
12332;SDS011;6232;48.094;11.288;2022-08-19T00:58:08;19.13;;;12.73;;
12332;SDS011;6232;48.094;11.288;2022-08-19T01:00:55;13.80;;;11.40;;
12332;SDS011;6232;48.094;11.288;2022-08-19T01:03:40;14.47;;;12.00;;
12332;SDS011;6232;48.094;11.288;2022-08-19T01:06:26;19.30;;;12.27;;
12332;SDS011;6232;48.094;11.288;2022-08-19T01:09:12;14.70;;;12.63;;
12332;SDS011;6232;48.094;11.288;2022-08-19T01:11:57;13.03;;;11.30;;
12332;SDS011;6232;48.094;11.288;2022-08-19T01:14:43;17.20;;;11.30;;
12332;SDS011;6232;48.094;11.288;2022-08-19T01:17:30;14.67;;;10.90;;
12332;SDS011;6232;48.094;11.288;2022-08-19T01:20:17;16.23;;;11.20;;
12332;SDS011;6232;48.094;11.288;2022-08-19T01:23:04;12.90;;;10.30;;
12332;SDS011;6232;48.094;11.288;2022-08-19T01:25:51;16.47;;;12.47;;
12332;SDS011;6232;48.094;11.288;2022-08-19T01:28:37;15.53;;;11.70;;
12332;SDS011;6232;48.094;11.288;2022-08-19T01:31:26;15.73;;;12.43;;
12332;SDS011;6232;48.094;11.288;2022-08-19T01:34:14;16.50;;;12.10;;
12332;SDS011;6232;48.094;11.288;2022-08-19T01:37:01;14.40;;;10.77;;
12332;SDS011;6232;48.094;11.288;2022-08-19T01:39:50;13.13;;;11.03;;
12332;SDS011;6232;48.094;11.288;2022-08-19T01:42:36;15.40;;;11.50;;
12332;SDS011;6232;48.094;11.288;2022-08-19T01:45:23;13.10;;;10.50;;
12332;SDS011;6232;48.094;11.288;2022-08-19T01:48:08;14.40;;;11.03;;
12332;SDS011;6232;48.094;11.288;2022-08-19T01:50:54;12.93;;;10.27;;
12332;SDS011;6232;48.094;11.288;2022-08-19T01:53:40;16.83;;;10.50;;
12332;SDS011;6232;48.094;11.288;2022-08-19T01:56:26;15.47;;;9.97;;
12332;SDS011;6232;48.094;11.288;2022-08-19T01:59:16;12.20;;;10.37;;
12332;SDS011;6232;48.094;11.288;2022-08-19T02:02:04;12.10;;;10.07;;
12332;SDS011;6232;48.094;11.288;2022-08-19T02:04:51;11.97;;;9.27;;
12332;SDS011;6232;48.094;11.288;2022-08-19T02:07:38;11.63;;;9.77;;
12332;SDS011;6232;48.094;11.288;2022-08-19T02:10:24;12.00;;;9.60;;
12332;SDS011;6232;48.094;11.288;2022-08-19T02:13:10;11.80;;;9.80;;
12332;SDS011;6232;48.094;11.288;2022-08-19T02:15:56;12.63;;;10.73;;
12332;SDS011;6232;48.094;11.288;2022-08-19T02:18:41;14.93;;;10.00;;
12332;SDS011;6232;48.094;11.288;2022-08-19T02:21:27;12.70;;;8.87;;
12332;SDS011;6232;48.094;11.288;2022-08-19T02:24:13;12.20;;;9.67;;
12332;SDS011;6232;48.094;11.288;2022-08-19T02:26:59;12.73;;;9.57;;
12332;SDS011;6232;48.094;11.288;2022-08-19T02:29:48;10.40;;;9.27;;
12332;SDS011;6232;48.094;11.288;2022-08-19T02:32:34;9.43;;;8.43;;
12332;SDS011;6232;48.094;11.288;2022-08-19T02:35:20;10.30;;;8.33;;
12332;SDS011;6232;48.094;11.288;2022-08-19T02:38:06;12.60;;;7.97;;
12332;SDS011;6232;48.094;11.288;2022-08-19T02:41:14;10.13;;;8.10;;
12332;SDS011;6232;48.094;11.288;2022-08-19T02:44:01;10.23;;;7.67;;
12332;SDS011;6232;48.094;11.288;2022-08-19T02:46:47;13.20;;;9.27;;
12332;SDS011;6232;48.094;11.288;2022-08-19T02:49:33;10.23;;;7.30;;
12332;SDS011;6232;48.094;11.288;2022-08-19T02:52:18;14.13;;;8.50;;
12332;SDS011;6232;48.094;11.288;2022-08-19T02:55:04;11.63;;;8.07;;
12332;SDS011;6232;48.094;11.288;2022-08-19T02:57:50;8.80;;;7.43;;
12332;SDS011;6232;48.094;11.288;2022-08-19T03:00:35;9.90;;;8.47;;
12332;SDS011;6232;48.094;11.288;2022-08-19T03:03:21;9.80;;;7.90;;
12332;SDS011;6232;48.094;11.288;2022-08-19T03:06:11;10.93;;;8.20;;
12332;SDS011;6232;48.094;11.288;2022-08-19T03:08:58;9.70;;;7.87;;
12332;SDS011;6232;48.094;11.288;2022-08-19T03:11:43;11.47;;;9.60;;
12332;SDS011;6232;48.094;11.288;2022-08-19T03:14:32;10.67;;;9.07;;
12332;SDS011;6232;48.094;11.288;2022-08-19T03:17:18;14.83;;;9.00;;
12332;SDS011;6232;48.094;11.288;2022-08-19T03:20:04;10.17;;;8.67;;
12332;SDS011;6232;48.094;11.288;2022-08-19T03:22:50;11.10;;;9.30;;
12332;SDS011;6232;48.094;11.288;2022-08-19T03:25:36;12.10;;;8.40;;
12332;SDS011;6232;48.094;11.288;2022-08-19T03:28:23;11.23;;;9.47;;
12332;SDS011;6232;48.094;11.288;2022-08-19T03:31:12;13.27;;;9.30;;
12332;SDS011;6232;48.094;11.288;2022-08-19T03:33:59;16.37;;;8.87;;
12332;SDS011;6232;48.094;11.288;2022-08-19T03:36:45;12.23;;;8.97;;
12332;SDS011;6232;48.094;11.288;2022-08-19T03:39:31;14.90;;;8.80;;
12332;SDS011;6232;48.094;11.288;2022-08-19T03:42:16;11.27;;;8.97;;
12332;SDS011;6232;48.094;11.288;2022-08-19T03:45:02;12.57;;;8.30;;
12332;SDS011;6232;48.094;11.288;2022-08-19T03:47:48;12.50;;;9.30;;
12332;SDS011;6232;48.094;11.288;2022-08-19T03:50:37;10.53;;;8.90;;
12332;SDS011;6232;48.094;11.288;2022-08-19T03:53:23;12.43;;;9.10;;
12332;SDS011;6232;48.094;11.288;2022-08-19T03:56:09;16.93;;;9.90;;
12332;SDS011;6232;48.094;11.288;2022-08-19T03:58:55;11.93;;;8.70;;
12332;SDS011;6232;48.094;11.288;2022-08-19T04:01:41;9.73;;;8.80;;
12332;SDS011;6232;48.094;11.288;2022-08-19T04:04:27;17.43;;;8.60;;
12332;SDS011;6232;48.094;11.288;2022-08-19T04:07:14;13.83;;;10.07;;
12332;SDS011;6232;48.094;11.288;2022-08-19T04:10:03;13.43;;;9.83;;
12332;SDS011;6232;48.094;11.288;2022-08-19T04:12:49;13.80;;;9.67;;
12332;SDS011;6232;48.094;11.288;2022-08-19T04:15:38;14.23;;;10.53;;
12332;SDS011;6232;48.094;11.288;2022-08-19T04:18:26;12.70;;;10.00;;
12332;SDS011;6232;48.094;11.288;2022-08-19T04:21:18;11.90;;;9.60;;
12332;SDS011;6232;48.094;11.288;2022-08-19T04:24:05;14.37;;;10.57;;
12332;SDS011;6232;48.094;11.288;2022-08-19T04:26:51;13.80;;;9.87;;
12332;SDS011;6232;48.094;11.288;2022-08-19T04:29:36;15.13;;;11.00;;
12332;SDS011;6232;48.094;11.288;2022-08-19T04:32:24;12.93;;;11.40;;
12332;SDS011;6232;48.094;11.288;2022-08-19T04:35:10;15.00;;;11.20;;
12332;SDS011;6232;48.094;11.288;2022-08-19T04:37:55;15.90;;;11.07;;
12332;SDS011;6232;48.094;11.288;2022-08-19T04:40:42;17.30;;;12.10;;
12332;SDS011;6232;48.094;11.288;2022-08-19T04:43:46;13.67;;;10.93;;
12332;SDS011;6232;48.094;11.288;2022-08-19T04:46:34;18.53;;;12.40;;
12332;SDS011;6232;48.094;11.288;2022-08-19T04:49:20;15.30;;;11.73;;
12332;SDS011;6232;48.094;11.288;2022-08-19T04:52:07;16.63;;;12.80;;
12332;SDS011;6232;48.094;11.288;2022-08-19T04:54:53;16.90;;;12.60;;
12332;SDS011;6232;48.094;11.288;2022-08-19T04:57:40;17.90;;;13.37;;
12332;SDS011;6232;48.094;11.288;2022-08-19T05:00:26;17.07;;;13.60;;
12332;SDS011;6232;48.094;11.288;2022-08-19T05:03:11;17.87;;;14.00;;
12332;SDS011;6232;48.094;11.288;2022-08-19T05:05:58;17.43;;;13.63;;
12332;SDS011;6232;48.094;11.288;2022-08-19T05:08:44;16.87;;;13.20;;
12332;SDS011;6232;48.094;11.288;2022-08-19T05:11:34;17.07;;;13.43;;
12332;SDS011;6232;48.094;11.288;2022-08-19T05:14:20;18.10;;;13.30;;
12332;SDS011;6232;48.094;11.288;2022-08-19T05:17:06;17.80;;;12.90;;
12332;SDS011;6232;48.094;11.288;2022-08-19T05:19:51;18.03;;;11.47;;
12332;SDS011;6232;48.094;11.288;2022-08-19T05:22:55;20.40;;;14.57;;
12332;SDS011;6232;48.094;11.288;2022-08-19T05:25:41;16.37;;;13.40;;
12332;SDS011;6232;48.094;11.288;2022-08-19T05:28:27;22.60;;;15.17;;
12332;SDS011;6232;48.094;11.288;2022-08-19T05:31:12;18.73;;;13.67;;
12332;SDS011;6232;48.094;11.288;2022-08-19T05:33:58;19.50;;;15.30;;
12332;SDS011;6232;48.094;11.288;2022-08-19T05:36:44;19.77;;;14.70;;
12332;SDS011;6232;48.094;11.288;2022-08-19T05:39:31;22.20;;;15.80;;
12332;SDS011;6232;48.094;11.288;2022-08-19T05:42:17;17.03;;;13.80;;
12332;SDS011;6232;48.094;11.288;2022-08-19T05:45:06;23.90;;;15.00;;
12332;SDS011;6232;48.094;11.288;2022-08-19T05:47:51;20.90;;;14.17;;
12332;SDS011;6232;48.094;11.288;2022-08-19T05:50:38;22.40;;;15.37;;
12332;SDS011;6232;48.094;11.288;2022-08-19T05:53:23;20.30;;;14.67;;
12332;SDS011;6232;48.094;11.288;2022-08-19T05:56:11;24.50;;;15.53;;
12332;SDS011;6232;48.094;11.288;2022-08-19T05:58:57;21.07;;;15.80;;
12332;SDS011;6232;48.094;11.288;2022-08-19T06:01:45;22.03;;;15.80;;
12332;SDS011;6232;48.094;11.288;2022-08-19T06:04:31;25.63;;;16.50;;
12332;SDS011;6232;48.094;11.288;2022-08-19T06:07:17;21.20;;;16.00;;
12332;SDS011;6232;48.094;11.288;2022-08-19T06:10:04;23.20;;;15.37;;
12332;SDS011;6232;48.094;11.288;2022-08-19T06:12:50;23.00;;;16.37;;
12332;SDS011;6232;48.094;11.288;2022-08-19T06:15:35;19.77;;;16.40;;
12332;SDS011;6232;48.094;11.288;2022-08-19T06:18:21;22.70;;;16.07;;
12332;SDS011;6232;48.094;11.288;2022-08-19T06:21:07;20.20;;;15.70;;
12332;SDS011;6232;48.094;11.288;2022-08-19T06:23:52;22.73;;;17.47;;
12332;SDS011;6232;48.094;11.288;2022-08-19T06:26:40;23.90;;;17.10;;
12332;SDS011;6232;48.094;11.288;2022-08-19T06:29:26;22.07;;;17.47;;
12332;SDS011;6232;48.094;11.288;2022-08-19T06:32:14;22.93;;;17.17;;
12332;SDS011;6232;48.094;11.288;2022-08-19T06:35:00;23.70;;;17.17;;
12332;SDS011;6232;48.094;11.288;2022-08-19T06:37:45;23.27;;;16.63;;
12332;SDS011;6232;48.094;11.288;2022-08-19T06:40:31;22.30;;;16.13;;
12332;SDS011;6232;48.094;11.288;2022-08-19T06:43:16;22.90;;;17.73;;
12332;SDS011;6232;48.094;11.288;2022-08-19T06:46:02;25.40;;;16.60;;
12332;SDS011;6232;48.094;11.288;2022-08-19T06:48:48;26.53;;;17.53;;
12332;SDS011;6232;48.094;11.288;2022-08-19T06:51:34;23.87;;;17.33;;
12332;SDS011;6232;48.094;11.288;2022-08-19T06:54:20;27.93;;;19.13;;
12332;SDS011;6232;48.094;11.288;2022-08-19T06:57:05;26.00;;;19.73;;
12332;SDS011;6232;48.094;11.288;2022-08-19T06:59:52;27.23;;;19.77;;
12332;SDS011;6232;48.094;11.288;2022-08-19T07:02:38;27.77;;;18.83;;
12332;SDS011;6232;48.094;11.288;2022-08-19T07:05:23;34.40;;;22.33;;
12332;SDS011;6232;48.094;11.288;2022-08-19T07:08:09;32.67;;;21.73;;
12332;SDS011;6232;48.094;11.288;2022-08-19T07:10:55;29.90;;;21.87;;
12332;SDS011;6232;48.094;11.288;2022-08-19T07:13:41;29.77;;;20.57;;
12332;SDS011;6232;48.094;11.288;2022-08-19T07:16:28;32.03;;;21.43;;
12332;SDS011;6232;48.094;11.288;2022-08-19T07:19:14;30.50;;;22.10;;
12332;SDS011;6232;48.094;11.288;2022-08-19T07:22:01;31.53;;;21.17;;
12332;SDS011;6232;48.094;11.288;2022-08-19T07:24:47;26.33;;;20.37;;
12332;SDS011;6232;48.094;11.288;2022-08-19T07:27:32;25.27;;;20.10;;
12332;SDS011;6232;48.094;11.288;2022-08-19T07:30:19;29.43;;;19.80;;
12332;SDS011;6232;48.094;11.288;2022-08-19T07:33:05;27.57;;;19.30;;
12332;SDS011;6232;48.094;11.288;2022-08-19T07:35:51;29.90;;;20.13;;
12332;SDS011;6232;48.094;11.288;2022-08-19T07:38:38;33.43;;;23.10;;
12332;SDS011;6232;48.094;11.288;2022-08-19T07:41:25;30.50;;;21.30;;
12332;SDS011;6232;48.094;11.288;2022-08-19T07:44:11;36.03;;;24.27;;
12332;SDS011;6232;48.094;11.288;2022-08-19T07:46:57;38.10;;;24.50;;
12332;SDS011;6232;48.094;11.288;2022-08-19T07:49:44;34.30;;;23.10;;
12332;SDS011;6232;48.094;11.288;2022-08-19T07:52:29;35.53;;;23.23;;
12332;SDS011;6232;48.094;11.288;2022-08-19T07:55:16;30.40;;;20.73;;
12332;SDS011;6232;48.094;11.288;2022-08-19T07:58:02;29.57;;;19.70;;
12332;SDS011;6232;48.094;11.288;2022-08-19T08:00:50;30.73;;;22.20;;
12332;SDS011;6232;48.094;11.288;2022-08-19T08:03:35;33.10;;;21.03;;
12332;SDS011;6232;48.094;11.288;2022-08-19T08:06:39;24.83;;;19.03;;
12332;SDS011;6232;48.094;11.288;2022-08-19T08:09:44;28.93;;;20.53;;
12332;SDS011;6232;48.094;11.288;2022-08-19T08:12:32;24.20;;;18.20;;
12332;SDS011;6232;48.094;11.288;2022-08-19T08:15:17;24.00;;;19.23;;
12332;SDS011;6232;48.094;11.288;2022-08-19T08:18:03;29.47;;;20.10;;
12332;SDS011;6232;48.094;11.288;2022-08-19T08:20:49;27.97;;;20.30;;
12332;SDS011;6232;48.094;11.288;2022-08-19T08:23:35;27.43;;;20.53;;
12332;SDS011;6232;48.094;11.288;2022-08-19T08:26:21;34.17;;;21.90;;
12332;SDS011;6232;48.094;11.288;2022-08-19T08:29:06;31.93;;;21.93;;
12332;SDS011;6232;48.094;11.288;2022-08-19T08:31:55;32.43;;;21.83;;
12332;SDS011;6232;48.094;11.288;2022-08-19T08:34:41;28.33;;;19.83;;
12332;SDS011;6232;48.094;11.288;2022-08-19T08:37:27;27.77;;;21.17;;
12332;SDS011;6232;48.094;11.288;2022-08-19T08:40:21;35.73;;;22.50;;
12332;SDS011;6232;48.094;11.288;2022-08-19T08:45:55;38.03;;;25.40;;
12332;SDS011;6232;48.094;11.288;2022-08-19T08:51:36;39.47;;;24.30;;
12332;SDS011;6232;48.094;11.288;2022-08-19T08:54:23;37.60;;;23.33;;
12332;SDS011;6232;48.094;11.288;2022-08-19T08:57:14;37.70;;;24.73;;
12332;SDS011;6232;48.094;11.288;2022-08-19T09:00:02;38.50;;;24.63;;
12332;SDS011;6232;48.094;11.288;2022-08-19T09:02:50;48.20;;;25.80;;
12332;SDS011;6232;48.094;11.288;2022-08-19T09:11:24;53.63;;;27.00;;
12332;SDS011;6232;48.094;11.288;2022-08-19T09:17:03;48.03;;;27.27;;
12332;SDS011;6232;48.094;11.288;2022-08-19T09:19:56;48.43;;;28.50;;
12332;SDS011;6232;48.094;11.288;2022-08-19T09:22:42;49.17;;;27.80;;
12332;SDS011;6232;48.094;11.288;2022-08-19T09:25:31;46.50;;;27.87;;
12332;SDS011;6232;48.094;11.288;2022-08-19T09:28:19;50.43;;;29.03;;
12332;SDS011;6232;48.094;11.288;2022-08-19T09:31:05;47.70;;;28.30;;
12332;SDS011;6232;48.094;11.288;2022-08-19T09:33:51;49.23;;;27.70;;
12332;SDS011;6232;48.094;11.288;2022-08-19T09:36:36;47.57;;;29.57;;
12332;SDS011;6232;48.094;11.288;2022-08-19T09:39:24;46.03;;;28.23;;
12332;SDS011;6232;48.094;11.288;2022-08-19T09:42:09;38.97;;;27.07;;
12332;SDS011;6232;48.094;11.288;2022-08-19T09:44:57;42.00;;;25.80;;
12332;SDS011;6232;48.094;11.288;2022-08-19T09:47:43;42.50;;;26.30;;
12332;SDS011;6232;48.094;11.288;2022-08-19T09:50:28;46.07;;;25.70;;
12332;SDS011;6232;48.094;11.288;2022-08-19T09:53:17;36.37;;;23.40;;
12332;SDS011;6232;48.094;11.288;2022-08-19T09:56:03;39.70;;;24.60;;
12332;SDS011;6232;48.094;11.288;2022-08-19T09:58:49;33.80;;;24.00;;
12332;SDS011;6232;48.094;11.288;2022-08-19T10:01:35;37.30;;;23.70;;
12332;SDS011;6232;48.094;11.288;2022-08-19T10:04:21;36.03;;;22.00;;
12332;SDS011;6232;48.094;11.288;2022-08-19T10:07:06;33.77;;;21.47;;
12332;SDS011;6232;48.094;11.288;2022-08-19T10:09:52;34.47;;;21.97;;
12332;SDS011;6232;48.094;11.288;2022-08-19T10:12:37;36.73;;;22.03;;
12332;SDS011;6232;48.094;11.288;2022-08-19T10:15:23;31.80;;;22.10;;
12332;SDS011;6232;48.094;11.288;2022-08-19T10:18:09;31.53;;;22.37;;
12332;SDS011;6232;48.094;11.288;2022-08-19T10:21:02;36.23;;;24.00;;
12332;SDS011;6232;48.094;11.288;2022-08-19T10:23:49;33.10;;;23.07;;
12332;SDS011;6232;48.094;11.288;2022-08-19T10:26:36;31.70;;;21.37;;
12332;SDS011;6232;48.094;11.288;2022-08-19T10:29:22;31.77;;;21.07;;
12332;SDS011;6232;48.094;11.288;2022-08-19T10:32:08;30.27;;;21.13;;
12332;SDS011;6232;48.094;11.288;2022-08-19T10:34:53;34.63;;;21.93;;
12332;SDS011;6232;48.094;11.288;2022-08-19T10:37:39;33.83;;;19.30;;
12332;SDS011;6232;48.094;11.288;2022-08-19T10:40:26;24.73;;;17.90;;
12332;SDS011;6232;48.094;11.288;2022-08-19T10:43:12;23.83;;;16.53;;
12332;SDS011;6232;48.094;11.288;2022-08-19T10:45:59;20.47;;;14.60;;
12332;SDS011;6232;48.094;11.288;2022-08-19T10:48:45;21.13;;;14.73;;
12332;SDS011;6232;48.094;11.288;2022-08-19T10:51:31;19.10;;;13.00;;
12332;SDS011;6232;48.094;11.288;2022-08-19T10:54:35;18.70;;;13.03;;
12332;SDS011;6232;48.094;11.288;2022-08-19T10:57:40;22.50;;;15.67;;
12332;SDS011;6232;48.094;11.288;2022-08-19T11:00:25;30.10;;;16.17;;
12332;SDS011;6232;48.094;11.288;2022-08-19T11:03:11;20.00;;;15.50;;
12332;SDS011;6232;48.094;11.288;2022-08-19T11:06:00;20.70;;;13.70;;
12332;SDS011;6232;48.094;11.288;2022-08-19T11:08:46;14.53;;;11.87;;
12332;SDS011;6232;48.094;11.288;2022-08-19T11:11:32;15.93;;;12.93;;
12332;SDS011;6232;48.094;11.288;2022-08-19T11:14:18;15.53;;;11.60;;
12332;SDS011;6232;48.094;11.288;2022-08-19T11:17:05;16.37;;;11.47;;
12332;SDS011;6232;48.094;11.288;2022-08-19T11:19:50;13.23;;;10.53;;
12332;SDS011;6232;48.094;11.288;2022-08-19T11:22:36;14.20;;;10.93;;
12332;SDS011;6232;48.094;11.288;2022-08-19T11:25:22;9.33;;;7.10;;
12332;SDS011;6232;48.094;11.288;2022-08-19T11:28:07;7.43;;;4.93;;
12332;SDS011;6232;48.094;11.288;2022-08-19T11:30:53;7.43;;;5.53;;
12332;SDS011;6232;48.094;11.288;2022-08-19T11:33:39;5.80;;;4.40;;
12332;SDS011;6232;48.094;11.288;2022-08-19T11:36:25;4.30;;;3.60;;
12332;SDS011;6232;48.094;11.288;2022-08-19T11:39:12;3.50;;;3.20;;
12332;SDS011;6232;48.094;11.288;2022-08-19T11:41:58;3.53;;;3.23;;
12332;SDS011;6232;48.094;11.288;2022-08-19T11:44:44;3.10;;;2.90;;
12332;SDS011;6232;48.094;11.288;2022-08-19T11:47:31;2.63;;;2.43;;
12332;SDS011;6232;48.094;11.288;2022-08-19T11:50:18;3.13;;;2.10;;
12332;SDS011;6232;48.094;11.288;2022-08-19T11:53:04;3.53;;;3.23;;
12332;SDS011;6232;48.094;11.288;2022-08-19T11:55:49;2.87;;;2.57;;
12332;SDS011;6232;48.094;11.288;2022-08-19T11:58:35;2.70;;;2.50;;
12332;SDS011;6232;48.094;11.288;2022-08-19T12:01:21;5.23;;;2.43;;
12332;SDS011;6232;48.094;11.288;2022-08-19T12:04:07;3.40;;;2.13;;
12332;SDS011;6232;48.094;11.288;2022-08-19T12:06:53;2.10;;;1.77;;
12332;SDS011;6232;48.094;11.288;2022-08-19T12:09:39;2.80;;;2.23;;
12332;SDS011;6232;48.094;11.288;2022-08-19T12:12:25;1.80;;;1.70;;
12332;SDS011;6232;48.094;11.288;2022-08-19T12:15:12;2.30;;;2.20;;
12332;SDS011;6232;48.094;11.288;2022-08-19T12:17:58;2.40;;;2.00;;
12332;SDS011;6232;48.094;11.288;2022-08-19T12:20:43;3.40;;;2.10;;
12332;SDS011;6232;48.094;11.288;2022-08-19T12:23:30;2.00;;;1.90;;
12332;SDS011;6232;48.094;11.288;2022-08-19T12:26:16;2.80;;;2.17;;
12332;SDS011;6232;48.094;11.288;2022-08-19T12:29:03;1.73;;;1.63;;
12332;SDS011;6232;48.094;11.288;2022-08-19T12:31:49;24.43;;;12.73;;
12332;SDS011;6232;48.094;11.288;2022-08-19T12:34:34;2.47;;;2.27;;
12332;SDS011;6232;48.094;11.288;2022-08-19T12:37:22;2.17;;;1.97;;
12332;SDS011;6232;48.094;11.288;2022-08-19T12:40:08;2.30;;;2.20;;
12332;SDS011;6232;48.094;11.288;2022-08-19T12:42:54;3.20;;;2.60;;
12332;SDS011;6232;48.094;11.288;2022-08-19T12:45:40;8.20;;;3.10;;
12332;SDS011;6232;48.094;11.288;2022-08-19T12:48:26;5.70;;;2.80;;
12332;SDS011;6232;48.094;11.288;2022-08-19T12:51:13;2.43;;;2.00;;
12332;SDS011;6232;48.094;11.288;2022-08-19T12:54:00;1.90;;;1.80;;
12332;SDS011;6232;48.094;11.288;2022-08-19T12:56:46;2.27;;;2.07;;
12332;SDS011;6232;48.094;11.288;2022-08-19T12:59:32;3.30;;;1.90;;
12332;SDS011;6232;48.094;11.288;2022-08-19T13:02:19;2.10;;;2.00;;
12332;SDS011;6232;48.094;11.288;2022-08-19T13:05:05;6.43;;;2.17;;
12332;SDS011;6232;48.094;11.288;2022-08-19T13:07:54;2.70;;;2.50;;
12332;SDS011;6232;48.094;11.288;2022-08-19T13:10:41;3.27;;;2.87;;
12332;SDS011;6232;48.094;11.288;2022-08-19T13:13:27;2.80;;;2.17;;
12332;SDS011;6232;48.094;11.288;2022-08-19T13:16:13;4.70;;;2.53;;
12332;SDS011;6232;48.094;11.288;2022-08-19T13:18:58;4.17;;;3.00;;
12332;SDS011;6232;48.094;11.288;2022-08-19T13:21:44;3.13;;;2.80;;
12332;SDS011;6232;48.094;11.288;2022-08-19T13:24:29;2.23;;;2.03;;
12332;SDS011;6232;48.094;11.288;2022-08-19T13:27:15;3.90;;;3.07;;
12332;SDS011;6232;48.094;11.288;2022-08-19T13:30:01;3.03;;;2.80;;
12332;SDS011;6232;48.094;11.288;2022-08-19T13:33:06;4.10;;;2.90;;
12332;SDS011;6232;48.094;11.288;2022-08-19T13:36:01;3.20;;;2.80;;
12332;SDS011;6232;48.094;11.288;2022-08-19T13:38:47;3.53;;;2.67;;
12332;SDS011;6232;48.094;11.288;2022-08-19T13:41:32;2.80;;;2.60;;
12332;SDS011;6232;48.094;11.288;2022-08-19T13:44:19;3.07;;;2.87;;
12332;SDS011;6232;48.094;11.288;2022-08-19T13:47:05;2.27;;;2.17;;
12332;SDS011;6232;48.094;11.288;2022-08-19T13:49:51;2.43;;;2.23;;
12332;SDS011;6232;48.094;11.288;2022-08-19T13:52:38;2.00;;;1.90;;
12332;SDS011;6232;48.094;11.288;2022-08-19T13:55:24;2.80;;;2.60;;
12332;SDS011;6232;48.094;11.288;2022-08-19T13:58:10;3.17;;;2.30;;
12332;SDS011;6232;48.094;11.288;2022-08-19T14:00:56;1.73;;;1.63;;
12332;SDS011;6232;48.094;11.288;2022-08-19T14:03:42;1.83;;;1.70;;
12332;SDS011;6232;48.094;11.288;2022-08-19T14:06:29;1.97;;;1.87;;
12332;SDS011;6232;48.094;11.288;2022-08-19T14:09:15;2.30;;;2.10;;
12332;SDS011;6232;48.094;11.288;2022-08-19T14:12:00;2.23;;;2.10;;
12332;SDS011;6232;48.094;11.288;2022-08-19T14:14:46;2.30;;;2.10;;
12332;SDS011;6232;48.094;11.288;2022-08-19T14:17:32;1.87;;;1.70;;
12332;SDS011;6232;48.094;11.288;2022-08-19T14:20:20;4.57;;;2.20;;
12332;SDS011;6232;48.094;11.288;2022-08-19T14:23:05;3.60;;;1.80;;
12332;SDS011;6232;48.094;11.288;2022-08-19T14:25:51;2.47;;;1.90;;
12332;SDS011;6232;48.094;11.288;2022-08-19T14:28:37;2.00;;;1.80;;
12332;SDS011;6232;48.094;11.288;2022-08-19T14:31:24;2.30;;;2.10;;
12332;SDS011;6232;48.094;11.288;2022-08-19T14:34:10;1.83;;;1.73;;
12332;SDS011;6232;48.094;11.288;2022-08-19T14:36:56;2.63;;;2.23;;
12332;SDS011;6232;48.094;11.288;2022-08-19T14:39:41;1.90;;;1.80;;
12332;SDS011;6232;48.094;11.288;2022-08-19T14:42:27;3.10;;;2.80;;
12332;SDS011;6232;48.094;11.288;2022-08-19T14:45:13;3.13;;;2.50;;
12332;SDS011;6232;48.094;11.288;2022-08-19T14:47:58;2.60;;;2.40;;
12332;SDS011;6232;48.094;11.288;2022-08-19T14:50:45;2.70;;;2.27;;
12332;SDS011;6232;48.094;11.288;2022-08-19T14:53:31;3.17;;;2.00;;
12332;SDS011;6232;48.094;11.288;2022-08-19T14:56:21;2.50;;;2.40;;
12332;SDS011;6232;48.094;11.288;2022-08-19T14:59:07;3.17;;;2.70;;
12332;SDS011;6232;48.094;11.288;2022-08-19T15:01:52;2.70;;;2.50;;
12332;SDS011;6232;48.094;11.288;2022-08-19T15:04:38;3.23;;;2.93;;
12332;SDS011;6232;48.094;11.288;2022-08-19T15:07:24;3.37;;;3.07;;
12332;SDS011;6232;48.094;11.288;2022-08-19T15:10:10;3.93;;;3.57;;
12332;SDS011;6232;48.094;11.288;2022-08-19T15:12:56;3.60;;;3.30;;
12332;SDS011;6232;48.094;11.288;2022-08-19T15:15:42;5.17;;;4.70;;
12332;SDS011;6232;48.094;11.288;2022-08-19T15:18:27;5.10;;;4.17;;
12332;SDS011;6232;48.094;11.288;2022-08-19T15:21:14;5.53;;;4.90;;
12332;SDS011;6232;48.094;11.288;2022-08-19T15:24:03;4.80;;;4.40;;
12332;SDS011;6232;48.094;11.288;2022-08-19T15:26:51;6.37;;;4.70;;
12332;SDS011;6232;48.094;11.288;2022-08-19T15:29:36;6.60;;;4.73;;
12332;SDS011;6232;48.094;11.288;2022-08-19T15:32:22;7.63;;;5.00;;
12332;SDS011;6232;48.094;11.288;2022-08-19T15:35:08;4.20;;;3.80;;
12332;SDS011;6232;48.094;11.288;2022-08-19T15:37:54;4.63;;;4.23;;
12332;SDS011;6232;48.094;11.288;2022-08-19T15:40:40;4.20;;;3.87;;
12332;SDS011;6232;48.094;11.288;2022-08-19T15:43:26;4.53;;;4.13;;
12332;SDS011;6232;48.094;11.288;2022-08-19T15:46:12;4.07;;;3.67;;
12332;SDS011;6232;48.094;11.288;2022-08-19T15:49:02;3.40;;;3.10;;
12332;SDS011;6232;48.094;11.288;2022-08-19T15:51:48;4.33;;;3.70;;
12332;SDS011;6232;48.094;11.288;2022-08-19T15:54:34;5.60;;;3.40;;
12332;SDS011;6232;48.094;11.288;2022-08-19T15:57:19;3.83;;;3.30;;
12332;SDS011;6232;48.094;11.288;2022-08-19T16:00:11;4.17;;;3.73;;
12332;SDS011;6232;48.094;11.288;2022-08-19T16:03:29;4.00;;;3.60;;
12332;SDS011;6232;48.094;11.288;2022-08-19T16:06:34;4.57;;;4.17;;
12332;SDS011;6232;48.094;11.288;2022-08-19T16:09:20;5.80;;;3.50;;
12332;SDS011;6232;48.094;11.288;2022-08-19T16:12:06;3.77;;;3.37;;
12332;SDS011;6232;48.094;11.288;2022-08-19T16:14:52;7.67;;;2.80;;
12332;SDS011;6232;48.094;11.288;2022-08-19T16:17:38;3.60;;;2.83;;
12332;SDS011;6232;48.094;11.288;2022-08-19T16:20:24;20.00;;;8.53;;
12332;SDS011;6232;48.094;11.288;2022-08-19T16:23:11;3.07;;;2.80;;
12332;SDS011;6232;48.094;11.288;2022-08-19T16:25:56;2.83;;;2.60;;
12332;SDS011;6232;48.094;11.288;2022-08-19T16:28:42;3.40;;;2.90;;
12332;SDS011;6232;48.094;11.288;2022-08-19T16:31:28;3.10;;;2.90;;
12332;SDS011;6232;48.094;11.288;2022-08-19T16:34:14;3.20;;;2.90;;
12332;SDS011;6232;48.094;11.288;2022-08-19T16:37:00;3.30;;;2.80;;
12332;SDS011;6232;48.094;11.288;2022-08-19T16:39:45;3.33;;;3.03;;
12332;SDS011;6232;48.094;11.288;2022-08-19T16:42:31;3.97;;;3.30;;